CKR3 weather

Ste. Rose Du Lac Airport
Ste. Rose Du Lac, Manitoba, Canada

Public forecast

Using degrees Celsius for public forecast. Weather courtesy of forecast.io.

METAR (pilot weather report)

Closest report is Dauphin Barker Airport, 21.3 nm (39.5 km) W. Retrieved 2019/05/20 08:00 UTC (46 minutes ago):

CYDN 200800Z AUTO 26007KT 9SM OVC075 05/00 A3018 RMK SLP230

TAF (pilot weather forecast)

Closest forecast is Dauphin Barker Airport, 21.3 nm (39.5 km) W. Retrieved 2019/05/20 06:42 UTC (2 hours ago):

TAF CYDN 200538Z 2006/2018 VRB03KT P6SM FEW200 BECMG 2015/2017 07012KT RMK FCST BASED ON AUTO OBS. NXT FCST BY 201200Z